VOBGVOMM

Guest
Details From VOBG - Bangalore
To VOMM - CHENNAI INTL
Flight Number -
Tags generated
Created
Modified
Stats Distance 146 nm / 271 km
Max Altitude 15,500 ft / 4,724 m
Waypoints 3
Social Downloads 4
Likes 0
Share VATSIM

Download

Looking for another format? Having issues loading an existing format? Contact us
Advertisement - Login to hide

Notes

Basic altitude profile: - Ascent Rate: 2500ft/min - Ascent Speed: 250kts - Cruise Altitude: 40000ft - Cruise Speed: 420kts - Descent Rate: 2500ft/min - Descent Speed: 250kts

Route

VOBG TEBAM VOMM

ID Type Via Altitude Latitude Longitude Leg Dist Tot Dist Heading (true) Name
O VOBG APT - 0 ft / 0 m 12.95016˚ 77.67065˚ - 0 nm - Bangalore
TEBAM FIX - 15,500 ft / 4,724 m 12.96613˚ 78.46425˚ 46 nm 46 nm 89° / 89° -
O VOMM APT - 0 ft / 0 m 12.99386˚ 80.17144˚ 99 nm 146 nm 89° / 89° CHENNAI INTL

Altitude Profile

Advertisement - Login to hide

VOBG

Details ICAO VOBG
Name Bangalore
Region India
Timezone Asia/Kolkata (UTC+5.5)
Stats Elevation 2,912 ft / 888 m (AMSL)
Location 12.950157° 77.670647°
Runways 1
Magnetic Variation 1.217° W

METAR

VOBG 111100Z 10004KT 9999 FEW015 28/13 Q1014

Decode

TAF

Not found

Departure Runways

ID Width Length Bearing (true) Bearing (mag) Surface Threshold Offset Overrun Length
09 200 ft / 61 m 10,786 ft / 3,288 m 84.80° 86.02° Asphalt 0 ft / 0 m 950 ft / 290 m
27 200 ft / 61 m 10,786 ft / 3,288 m 264.81° 266.03° Asphalt 0 ft / 0 m 980 ft / 299 m

VOMM

Details ICAO VOMM (MAA)
Name CHENNAI INTL
Region India
Timezone Asia/Kolkata (UTC+5.5)
Stats Elevation 52 ft / 16 m (AMSL)
Location 12.993860° 80.171442°
Runways 2
Magnetic Variation 1.204° W

METAR

VOMM 111100Z 08007KT 3000 HZ FEW020 30/23 Q1011 NOSIG

Decode

TAF

TAF VOMM 110500Z 1106/1212 36005KT 5000 HZ FEW020 SCT100 BECMG 1112/1113 07005KT BECMG 1121/1122 00000KT 3000 BR TEMPO 1200/1203 1500 BR BECMG 1206/1207 34005KT 5000 HZ

Decode

Destination Runways

ID Width Length Bearing (true) Bearing (mag) Surface Threshold Offset Overrun Length
07 148 ft / 45 m 12,003 ft / 3,659 m 68.87° 70.07° Asphalt 0 ft / 0 m 481 ft / 147 m
12 148 ft / 45 m 6,711 ft / 2,046 m 117.77° 118.97° Asphalt 0 ft / 0 m 0 ft / 0 m
25 148 ft / 45 m 12,003 ft / 3,659 m 248.88° 250.08° Asphalt 0 ft / 0 m 492 ft / 150 m
30 148 ft / 45 m 6,711 ft / 2,046 m 297.78° 298.98° Asphalt 1,130 ft / 344 m 0 ft / 0 m

Approach Navaids

Runway Type Ident Frequency Range Bearing (true) Bearing (mag) Slope Elevation
07 Localiser IMAS 110.30 MHz 18 nm / 33 km 68.67° 69.88° - 52 ft / 16 m (AMSL)
07 Glidescope IMAS 110.30 MHz 10 nm / 19 km 68.88° 70.08° 3.00° 52 ft / 16 m (AMSL)
07 DME IMAS 110.30 MHz 18 nm / 33 km - - - 52 ft / 16 m (AMSL)

Popular Alternatives